sensor_id;sensor_type;location;lat;lon;timestamp;P1;durP1;ratioP1;P2;durP2;ratioP2
30729;SDS011;17476;48.458;7.928;2023-06-10T00:02:11;0.20;;;0.20;;
30729;SDS011;17476;48.458;7.928;2023-06-10T00:04:36;0.10;;;0.10;;
30729;SDS011;17476;48.458;7.928;2023-06-10T00:07:05;0.10;;;0.10;;
30729;SDS011;17476;48.458;7.928;2023-06-10T00:09:35;0.10;;;0.10;;
30729;SDS011;17476;48.458;7.928;2023-06-10T00:12:03;0.10;;;0.10;;
30729;SDS011;17476;48.458;7.928;2023-06-10T00:14:36;0.10;;;0.10;;
30729;SDS011;17476;48.458;7.928;2023-06-10T00:17:04;0.20;;;0.20;;
30729;SDS011;17476;48.458;7.928;2023-06-10T00:19:35;0.20;;;0.20;;
30729;SDS011;17476;48.458;7.928;2023-06-10T00:22:06;0.20;;;0.20;;
30729;SDS011;17476;48.458;7.928;2023-06-10T00:24:34;0.10;;;0.10;;
30729;SDS011;17476;48.458;7.928;2023-06-10T00:27:00;0.20;;;0.20;;
30729;SDS011;17476;48.458;7.928;2023-06-10T00:29:26;0.20;;;0.20;;
30729;SDS011;17476;48.458;7.928;2023-06-10T00:31:52;0.13;;;0.13;;
30729;SDS011;17476;48.458;7.928;2023-06-10T00:34:22;0.10;;;0.10;;
30729;SDS011;17476;48.458;7.928;2023-06-10T00:36:48;0.20;;;0.20;;
30729;SDS011;17476;48.458;7.928;2023-06-10T00:39:15;0.20;;;0.20;;
30729;SDS011;17476;48.458;7.928;2023-06-10T00:41:41;0.10;;;0.10;;
30729;SDS011;17476;48.458;7.928;2023-06-10T00:44:10;0.10;;;0.10;;
30729;SDS011;17476;48.458;7.928;2023-06-10T00:46:36;0.20;;;0.20;;
30729;SDS011;17476;48.458;7.928;2023-06-10T00:49:02;0.10;;;0.10;;
30729;SDS011;17476;48.458;7.928;2023-06-10T00:51:28;0.10;;;0.10;;
30729;SDS011;17476;48.458;7.928;2023-06-10T00:53:54;0.10;;;0.10;;
30729;SDS011;17476;48.458;7.928;2023-06-10T00:56:20;0.10;;;0.10;;
30729;SDS011;17476;48.458;7.928;2023-06-10T00:58:47;0.10;;;0.10;;
30729;SDS011;17476;48.458;7.928;2023-06-10T01:01:13;0.20;;;0.20;;
30729;SDS011;17476;48.458;7.928;2023-06-10T01:03:39;0.20;;;0.20;;
30729;SDS011;17476;48.458;7.928;2023-06-10T01:12:10;0.10;;;0.10;;
30729;SDS011;17476;48.458;7.928;2023-06-10T01:14:45;0.10;;;0.10;;
30729;SDS011;17476;48.458;7.928;2023-06-10T01:17:14;0.20;;;0.20;;
30729;SDS011;17476;48.458;7.928;2023-06-10T01:19:41;0.10;;;0.10;;
30729;SDS011;17476;48.458;7.928;2023-06-10T01:22:09;0.20;;;0.20;;
30729;SDS011;17476;48.458;7.928;2023-06-10T01:24:35;0.20;;;0.20;;
30729;SDS011;17476;48.458;7.928;2023-06-10T01:27:05;0.17;;;0.17;;
30729;SDS011;17476;48.458;7.928;2023-06-10T01:29:41;0.10;;;0.10;;
30729;SDS011;17476;48.458;7.928;2023-06-10T01:32:21;0.10;;;0.10;;
30729;SDS011;17476;48.458;7.928;2023-06-10T01:34:57;0.10;;;0.10;;
30729;SDS011;17476;48.458;7.928;2023-06-10T01:37:26;0.20;;;0.20;;
30729;SDS011;17476;48.458;7.928;2023-06-10T01:39:55;0.10;;;0.10;;
30729;SDS011;17476;48.458;7.928;2023-06-10T01:42:24;0.10;;;0.10;;
30729;SDS011;17476;48.458;7.928;2023-06-10T01:45:00;0.10;;;0.10;;
30729;SDS011;17476;48.458;7.928;2023-06-10T01:47:26;0.20;;;0.20;;
30729;SDS011;17476;48.458;7.928;2023-06-10T01:49:52;0.10;;;0.10;;
30729;SDS011;17476;48.458;7.928;2023-06-10T01:52:18;0.10;;;0.10;;
30729;SDS011;17476;48.458;7.928;2023-06-10T01:54:46;0.10;;;0.10;;
30729;SDS011;17476;48.458;7.928;2023-06-10T01:57:12;0.20;;;0.20;;
30729;SDS011;17476;48.458;7.928;2023-06-10T01:59:38;0.20;;;0.20;;
30729;SDS011;17476;48.458;7.928;2023-06-10T02:02:09;0.20;;;0.20;;
30729;SDS011;17476;48.458;7.928;2023-06-10T02:04:36;0.20;;;0.20;;
30729;SDS011;17476;48.458;7.928;2023-06-10T02:07:02;0.20;;;0.20;;
30729;SDS011;17476;48.458;7.928;2023-06-10T02:09:29;0.20;;;0.20;;
30729;SDS011;17476;48.458;7.928;2023-06-10T02:11:56;0.10;;;0.10;;
30729;SDS011;17476;48.458;7.928;2023-06-10T02:14:22;0.17;;;0.17;;
30729;SDS011;17476;48.458;7.928;2023-06-10T02:16:48;0.20;;;0.20;;
30729;SDS011;17476;48.458;7.928;2023-06-10T02:19:14;0.20;;;0.20;;
30729;SDS011;17476;48.458;7.928;2023-06-10T02:21:40;0.20;;;0.20;;
30729;SDS011;17476;48.458;7.928;2023-06-10T02:24:05;0.20;;;0.20;;
30729;SDS011;17476;48.458;7.928;2023-06-10T02:26:32;0.10;;;0.10;;
30729;SDS011;17476;48.458;7.928;2023-06-10T02:28:57;0.20;;;0.20;;
30729;SDS011;17476;48.458;7.928;2023-06-10T02:31:23;0.20;;;0.20;;
30729;SDS011;17476;48.458;7.928;2023-06-10T02:33:50;0.20;;;0.20;;
30729;SDS011;17476;48.458;7.928;2023-06-10T02:36:16;0.10;;;0.10;;
30729;SDS011;17476;48.458;7.928;2023-06-10T02:38:42;0.20;;;0.20;;
30729;SDS011;17476;48.458;7.928;2023-06-10T02:41:07;0.10;;;0.10;;
30729;SDS011;17476;48.458;7.928;2023-06-10T02:43:33;0.20;;;0.20;;
30729;SDS011;17476;48.458;7.928;2023-06-10T02:45:59;0.20;;;0.20;;
30729;SDS011;17476;48.458;7.928;2023-06-10T02:48:25;0.20;;;0.20;;
30729;SDS011;17476;48.458;7.928;2023-06-10T02:50:53;0.10;;;0.10;;
30729;SDS011;17476;48.458;7.928;2023-06-10T02:53:19;0.10;;;0.10;;
30729;SDS011;17476;48.458;7.928;2023-06-10T02:55:45;0.20;;;0.20;;
30729;SDS011;17476;48.458;7.928;2023-06-10T02:58:10;0.13;;;0.13;;
30729;SDS011;17476;48.458;7.928;2023-06-10T03:00:36;0.10;;;0.10;;
30729;SDS011;17476;48.458;7.928;2023-06-10T03:03:03;0.20;;;0.20;;
30729;SDS011;17476;48.458;7.928;2023-06-10T03:05:30;0.20;;;0.20;;
30729;SDS011;17476;48.458;7.928;2023-06-10T03:07:56;0.17;;;0.17;;
30729;SDS011;17476;48.458;7.928;2023-06-10T03:10:22;0.20;;;0.20;;
30729;SDS011;17476;48.458;7.928;2023-06-10T03:12:47;0.20;;;0.20;;
30729;SDS011;17476;48.458;7.928;2023-06-10T03:15:13;0.20;;;0.20;;
30729;SDS011;17476;48.458;7.928;2023-06-10T03:17:40;0.10;;;0.10;;
30729;SDS011;17476;48.458;7.928;2023-06-10T03:20:07;0.10;;;0.10;;
30729;SDS011;17476;48.458;7.928;2023-06-10T03:22:35;0.10;;;0.10;;
30729;SDS011;17476;48.458;7.928;2023-06-10T03:25:03;0.20;;;0.20;;
30729;SDS011;17476;48.458;7.928;2023-06-10T03:27:30;0.10;;;0.10;;
30729;SDS011;17476;48.458;7.928;2023-06-10T03:29:57;0.20;;;0.20;;
30729;SDS011;17476;48.458;7.928;2023-06-10T03:32:23;0.20;;;0.20;;
30729;SDS011;17476;48.458;7.928;2023-06-10T03:34:49;0.20;;;0.20;;
30729;SDS011;17476;48.458;7.928;2023-06-10T03:37:16;0.20;;;0.20;;
30729;SDS011;17476;48.458;7.928;2023-06-10T03:39:42;0.30;;;0.30;;
30729;SDS011;17476;48.458;7.928;2023-06-10T03:42:07;0.20;;;0.20;;
30729;SDS011;17476;48.458;7.928;2023-06-10T03:44:33;0.30;;;0.30;;
30729;SDS011;17476;48.458;7.928;2023-06-10T03:46:59;0.10;;;0.10;;
30729;SDS011;17476;48.458;7.928;2023-06-10T03:49:25;0.20;;;0.20;;
30729;SDS011;17476;48.458;7.928;2023-06-10T03:51:53;0.20;;;0.20;;
30729;SDS011;17476;48.458;7.928;2023-06-10T03:54:20;0.20;;;0.20;;
30729;SDS011;17476;48.458;7.928;2023-06-10T03:56:46;0.20;;;0.20;;
30729;SDS011;17476;48.458;7.928;2023-06-10T03:59:13;0.20;;;0.20;;
30729;SDS011;17476;48.458;7.928;2023-06-10T04:01:39;0.20;;;0.20;;
30729;SDS011;17476;48.458;7.928;2023-06-10T04:04:06;0.10;;;0.10;;
30729;SDS011;17476;48.458;7.928;2023-06-10T04:06:32;0.20;;;0.20;;
30729;SDS011;17476;48.458;7.928;2023-06-10T04:08:57;0.20;;;0.20;;
30729;SDS011;17476;48.458;7.928;2023-06-10T04:11:24;0.20;;;0.20;;
30729;SDS011;17476;48.458;7.928;2023-06-10T04:13:50;0.20;;;0.20;;
30729;SDS011;17476;48.458;7.928;2023-06-10T04:16:16;0.20;;;0.20;;
30729;SDS011;17476;48.458;7.928;2023-06-10T04:18:41;0.20;;;0.20;;
30729;SDS011;17476;48.458;7.928;2023-06-10T04:21:07;0.20;;;0.20;;
30729;SDS011;17476;48.458;7.928;2023-06-10T04:23:36;0.10;;;0.10;;
30729;SDS011;17476;48.458;7.928;2023-06-10T04:26:02;0.20;;;0.20;;
30729;SDS011;17476;48.458;7.928;2023-06-10T04:28:28;0.20;;;0.20;;
30729;SDS011;17476;48.458;7.928;2023-06-10T04:30:54;0.20;;;0.20;;
30729;SDS011;17476;48.458;7.928;2023-06-10T04:33:20;0.20;;;0.20;;
30729;SDS011;17476;48.458;7.928;2023-06-10T04:35:46;0.20;;;0.20;;
30729;SDS011;17476;48.458;7.928;2023-06-10T04:38:12;0.20;;;0.20;;
30729;SDS011;17476;48.458;7.928;2023-06-10T04:40:39;0.20;;;0.20;;
30729;SDS011;17476;48.458;7.928;2023-06-10T04:43:05;0.10;;;0.10;;
30729;SDS011;17476;48.458;7.928;2023-06-10T04:45:31;0.20;;;0.20;;
30729;SDS011;17476;48.458;7.928;2023-06-10T04:47:56;0.10;;;0.10;;
30729;SDS011;17476;48.458;7.928;2023-06-10T04:50:23;0.20;;;0.20;;
30729;SDS011;17476;48.458;7.928;2023-06-10T04:52:51;0.10;;;0.10;;
30729;SDS011;17476;48.458;7.928;2023-06-10T04:55:17;0.10;;;0.10;;
30729;SDS011;17476;48.458;7.928;2023-06-10T04:57:43;0.20;;;0.20;;
30729;SDS011;17476;48.458;7.928;2023-06-10T05:00:09;0.20;;;0.20;;
30729;SDS011;17476;48.458;7.928;2023-06-10T05:02:35;0.20;;;0.20;;
30729;SDS011;17476;48.458;7.928;2023-06-10T05:05:01;0.20;;;0.20;;
30729;SDS011;17476;48.458;7.928;2023-06-10T05:07:27;0.20;;;0.20;;
30729;SDS011;17476;48.458;7.928;2023-06-10T05:09:53;0.20;;;0.20;;
30729;SDS011;17476;48.458;7.928;2023-06-10T05:12:19;0.10;;;0.10;;
30729;SDS011;17476;48.458;7.928;2023-06-10T05:14:44;0.20;;;0.20;;
30729;SDS011;17476;48.458;7.928;2023-06-10T05:17:11;0.20;;;0.20;;
30729;SDS011;17476;48.458;7.928;2023-06-10T05:19:38;0.20;;;0.20;;
30729;SDS011;17476;48.458;7.928;2023-06-10T05:22:03;0.10;;;0.10;;
30729;SDS011;17476;48.458;7.928;2023-06-10T05:24:29;0.20;;;0.20;;
30729;SDS011;17476;48.458;7.928;2023-06-10T05:26:58;0.10;;;0.10;;
30729;SDS011;17476;48.458;7.928;2023-06-10T05:29:28;0.20;;;0.20;;
30729;SDS011;17476;48.458;7.928;2023-06-10T05:31:54;0.10;;;0.10;;
30729;SDS011;17476;48.458;7.928;2023-06-10T05:34:22;0.10;;;0.10;;
30729;SDS011;17476;48.458;7.928;2023-06-10T05:36:48;0.10;;;0.10;;
30729;SDS011;17476;48.458;7.928;2023-06-10T05:39:14;0.17;;;0.17;;
30729;SDS011;17476;48.458;7.928;2023-06-10T05:41:40;0.10;;;0.10;;
30729;SDS011;17476;48.458;7.928;2023-06-10T05:44:05;0.13;;;0.13;;
30729;SDS011;17476;48.458;7.928;2023-06-10T05:46:31;0.20;;;0.20;;
30729;SDS011;17476;48.458;7.928;2023-06-10T05:48:57;0.10;;;0.10;;
30729;SDS011;17476;48.458;7.928;2023-06-10T05:51:23;0.10;;;0.10;;
30729;SDS011;17476;48.458;7.928;2023-06-10T05:53:49;0.10;;;0.10;;
30729;SDS011;17476;48.458;7.928;2023-06-10T05:56:15;0.10;;;0.10;;
30729;SDS011;17476;48.458;7.928;2023-06-10T05:58:43;0.10;;;0.10;;
30729;SDS011;17476;48.458;7.928;2023-06-10T06:01:09;0.10;;;0.10;;
30729;SDS011;17476;48.458;7.928;2023-06-10T06:03:35;0.00;;;0.00;;
30729;SDS011;17476;48.458;7.928;2023-06-10T06:06:01;0.10;;;0.10;;
30729;SDS011;17476;48.458;7.928;2023-06-10T06:08:28;0.00;;;0.00;;
30729;SDS011;17476;48.458;7.928;2023-06-10T06:10:54;0.00;;;0.00;;
30729;SDS011;17476;48.458;7.928;2023-06-10T06:13:20;0.10;;;0.10;;
30729;SDS011;17476;48.458;7.928;2023-06-10T06:15:45;0.10;;;0.10;;
30729;SDS011;17476;48.458;7.928;2023-06-10T06:18:11;0.10;;;0.10;;
30729;SDS011;17476;48.458;7.928;2023-06-10T06:20:37;0.10;;;0.10;;
30729;SDS011;17476;48.458;7.928;2023-06-10T06:23:03;0.00;;;0.00;;
30729;SDS011;17476;48.458;7.928;2023-06-10T06:25:29;0.00;;;0.00;;
30729;SDS011;17476;48.458;7.928;2023-06-10T06:27:55;0.10;;;0.10;;
30729;SDS011;17476;48.458;7.928;2023-06-10T06:30:20;0.10;;;0.10;;
30729;SDS011;17476;48.458;7.928;2023-06-10T06:32:46;0.10;;;0.10;;
30729;SDS011;17476;48.458;7.928;2023-06-10T06:35:12;0.00;;;0.00;;
30729;SDS011;17476;48.458;7.928;2023-06-10T06:37:38;0.10;;;0.10;;
30729;SDS011;17476;48.458;7.928;2023-06-10T06:40:04;0.00;;;0.00;;
30729;SDS011;17476;48.458;7.928;2023-06-10T06:42:30;0.10;;;0.10;;
30729;SDS011;17476;48.458;7.928;2023-06-10T06:44:56;0.00;;;0.00;;
30729;SDS011;17476;48.458;7.928;2023-06-10T06:47:22;0.00;;;0.00;;
30729;SDS011;17476;48.458;7.928;2023-06-10T06:49:48;0.03;;;0.03;;
30729;SDS011;17476;48.458;7.928;2023-06-10T06:52:16;0.10;;;0.10;;
30729;SDS011;17476;48.458;7.928;2023-06-10T06:54:42;0.10;;;0.10;;
30729;SDS011;17476;48.458;7.928;2023-06-10T06:57:08;0.00;;;0.00;;
30729;SDS011;17476;48.458;7.928;2023-06-10T06:59:34;0.00;;;0.00;;
30729;SDS011;17476;48.458;7.928;2023-06-10T07:02:00;0.10;;;0.10;;
30729;SDS011;17476;48.458;7.928;2023-06-10T07:04:25;0.10;;;0.10;;
30729;SDS011;17476;48.458;7.928;2023-06-10T07:06:51;0.00;;;0.00;;
30729;SDS011;17476;48.458;7.928;2023-06-10T07:09:17;0.00;;;0.00;;
30729;SDS011;17476;48.458;7.928;2023-06-10T07:11:43;0.00;;;0.00;;
30729;SDS011;17476;48.458;7.928;2023-06-10T07:14:08;0.10;;;0.10;;
30729;SDS011;17476;48.458;7.928;2023-06-10T07:16:34;0.10;;;0.10;;
30729;SDS011;17476;48.458;7.928;2023-06-10T07:19:00;0.10;;;0.10;;
30729;SDS011;17476;48.458;7.928;2023-06-10T07:21:26;0.10;;;0.10;;
30729;SDS011;17476;48.458;7.928;2023-06-10T07:23:53;0.10;;;0.10;;
30729;SDS011;17476;48.458;7.928;2023-06-10T07:26:21;0.00;;;0.00;;
30729;SDS011;17476;48.458;7.928;2023-06-10T07:28:47;0.10;;;0.10;;
30729;SDS011;17476;48.458;7.928;2023-06-10T07:31:13;0.00;;;0.00;;
30729;SDS011;17476;48.458;7.928;2023-06-10T07:33:39;0.00;;;0.00;;
30729;SDS011;17476;48.458;7.928;2023-06-10T07:36:05;0.07;;;0.07;;
30729;SDS011;17476;48.458;7.928;2023-06-10T07:38:31;0.00;;;0.00;;
30729;SDS011;17476;48.458;7.928;2023-06-10T07:40:57;0.00;;;0.00;;
30729;SDS011;17476;48.458;7.928;2023-06-10T07:43:23;0.00;;;0.00;;
30729;SDS011;17476;48.458;7.928;2023-06-10T07:45:49;0.00;;;0.00;;
30729;SDS011;17476;48.458;7.928;2023-06-10T07:48:15;0.00;;;0.00;;
30729;SDS011;17476;48.458;7.928;2023-06-10T07:50:41;0.00;;;0.00;;
30729;SDS011;17476;48.458;7.928;2023-06-10T07:53:07;0.00;;;0.00;;
30729;SDS011;17476;48.458;7.928;2023-06-10T07:55:33;0.00;;;0.00;;
30729;SDS011;17476;48.458;7.928;2023-06-10T07:57:58;0.00;;;0.00;;
30729;SDS011;17476;48.458;7.928;2023-06-10T08:00:24;0.00;;;0.00;;
30729;SDS011;17476;48.458;7.928;2023-06-10T08:02:50;0.00;;;0.00;;
30729;SDS011;17476;48.458;7.928;2023-06-10T08:05:17;0.00;;;0.00;;
30729;SDS011;17476;48.458;7.928;2023-06-10T08:07:43;0.00;;;0.00;;
30729;SDS011;17476;48.458;7.928;2023-06-10T08:10:09;0.00;;;0.00;;
30729;SDS011;17476;48.458;7.928;2023-06-10T08:12:35;0.00;;;0.00;;
30729;SDS011;17476;48.458;7.928;2023-06-10T08:15:01;0.00;;;0.00;;
30729;SDS011;17476;48.458;7.928;2023-06-10T08:17:29;0.00;;;0.00;;
30729;SDS011;17476;48.458;7.928;2023-06-10T08:19:57;0.00;;;0.00;;
30729;SDS011;17476;48.458;7.928;2023-06-10T08:22:26;0.00;;;0.00;;
30729;SDS011;17476;48.458;7.928;2023-06-10T08:24:54;0.00;;;0.00;;
30729;SDS011;17476;48.458;7.928;2023-06-10T08:27:21;0.00;;;0.00;;
30729;SDS011;17476;48.458;7.928;2023-06-10T08:29:46;0.00;;;0.00;;
30729;SDS011;17476;48.458;7.928;2023-06-10T08:32:12;0.00;;;0.00;;
30729;SDS011;17476;48.458;7.928;2023-06-10T08:34:39;0.00;;;0.00;;
30729;SDS011;17476;48.458;7.928;2023-06-10T08:37:05;0.00;;;0.00;;
30729;SDS011;17476;48.458;7.928;2023-06-10T08:39:31;0.00;;;0.00;;
30729;SDS011;17476;48.458;7.928;2023-06-10T08:45:02;0.00;;;0.00;;
30729;SDS011;17476;48.458;7.928;2023-06-10T08:47:31;0.00;;;0.00;;
30729;SDS011;17476;48.458;7.928;2023-06-10T08:50:04;0.00;;;0.00;;
30729;SDS011;17476;48.458;7.928;2023-06-10T08:52:37;0.00;;;0.00;;
30729;SDS011;17476;48.458;7.928;2023-06-10T08:55:10;0.00;;;0.00;;
30729;SDS011;17476;48.458;7.928;2023-06-10T08:57:57;0.00;;;0.00;;
30729;SDS011;17476;48.458;7.928;2023-06-10T09:00:26;0.00;;;0.00;;
30729;SDS011;17476;48.458;7.928;2023-06-10T09:02:55;0.00;;;0.00;;
30729;SDS011;17476;48.458;7.928;2023-06-10T09:05:22;0.00;;;0.00;;
30729;SDS011;17476;48.458;7.928;2023-06-10T09:07:48;0.00;;;0.00;;
30729;SDS011;17476;48.458;7.928;2023-06-10T09:10:16;0.00;;;0.00;;
30729;SDS011;17476;48.458;7.928;2023-06-10T09:12:41;0.00;;;0.00;;
30729;SDS011;17476;48.458;7.928;2023-06-10T09:15:07;0.00;;;0.00;;
30729;SDS011;17476;48.458;7.928;2023-06-10T09:17:34;0.00;;;0.00;;
30729;SDS011;17476;48.458;7.928;2023-06-10T09:20:08;0.00;;;0.00;;
30729;SDS011;17476;48.458;7.928;2023-06-10T09:22:34;0.00;;;0.00;;
30729;SDS011;17476;48.458;7.928;2023-06-10T09:25:10;0.00;;;0.00;;
30729;SDS011;17476;48.458;7.928;2023-06-10T09:27:48;0.00;;;0.00;;
30729;SDS011;17476;48.458;7.928;2023-06-10T09:32:52;0.00;;;0.00;;
30729;SDS011;17476;48.458;7.928;2023-06-10T09:35:23;0.00;;;0.00;;
30729;SDS011;17476;48.458;7.928;2023-06-10T09:37:54;0.00;;;0.00;;
30729;SDS011;17476;48.458;7.928;2023-06-10T09:40:22;0.00;;;0.00;;
30729;SDS011;17476;48.458;7.928;2023-06-10T09:42:53;0.00;;;0.00;;
30729;SDS011;17476;48.458;7.928;2023-06-10T09:45:29;0.00;;;0.00;;
30729;SDS011;17476;48.458;7.928;2023-06-10T09:47:56;0.00;;;0.00;;
30729;SDS011;17476;48.458;7.928;2023-06-10T09:50:22;0.00;;;0.00;;
30729;SDS011;17476;48.458;7.928;2023-06-10T09:52:49;0.00;;;0.00;;
30729;SDS011;17476;48.458;7.928;2023-06-10T09:55:16;0.00;;;0.00;;
30729;SDS011;17476;48.458;7.928;2023-06-10T09:57:43;0.00;;;0.00;;
30729;SDS011;17476;48.458;7.928;2023-06-10T10:00:13;0.00;;;0.00;;
30729;SDS011;17476;48.458;7.928;2023-06-10T10:02:47;0.00;;;0.00;;
30729;SDS011;17476;48.458;7.928;2023-06-10T10:05:14;0.00;;;0.00;;
30729;SDS011;17476;48.458;7.928;2023-06-10T10:07:42;0.00;;;0.00;;
30729;SDS011;17476;48.458;7.928;2023-06-10T10:10:12;0.00;;;0.00;;
30729;SDS011;17476;48.458;7.928;2023-06-10T10:13:20;0.00;;;0.00;;
30729;SDS011;17476;48.458;7.928;2023-06-10T10:15:46;0.00;;;0.00;;
30729;SDS011;17476;48.458;7.928;2023-06-10T10:18:14;0.00;;;0.00;;
30729;SDS011;17476;48.458;7.928;2023-06-10T10:20:50;0.00;;;0.00;;
30729;SDS011;17476;48.458;7.928;2023-06-10T10:24:02;0.00;;;0.00;;
30729;SDS011;17476;48.458;7.928;2023-06-10T10:26:17;0.00;;;0.00;;
30729;SDS011;17476;48.458;7.928;2023-06-10T10:28:51;0.00;;;0.00;;
30729;SDS011;17476;48.458;7.928;2023-06-10T10:31:29;0.00;;;0.00;;
30729;SDS011;17476;48.458;7.928;2023-06-10T10:33:58;0.00;;;0.00;;
30729;SDS011;17476;48.458;7.928;2023-06-10T10:36:25;0.00;;;0.00;;
30729;SDS011;17476;48.458;7.928;2023-06-10T10:38:52;0.00;;;0.00;;
30729;SDS011;17476;48.458;7.928;2023-06-10T10:41:19;0.00;;;0.00;;
30729;SDS011;17476;48.458;7.928;2023-06-10T10:43:46;0.00;;;0.00;;
30729;SDS011;17476;48.458;7.928;2023-06-10T10:46:13;0.00;;;0.00;;
30729;SDS011;17476;48.458;7.928;2023-06-10T10:48:42;0.00;;;0.00;;
30729;SDS011;17476;48.458;7.928;2023-06-10T10:51:09;0.00;;;0.00;;
30729;SDS011;17476;48.458;7.928;2023-06-10T10:53:37;0.00;;;0.00;;
30729;SDS011;17476;48.458;7.928;2023-06-10T10:56:04;0.00;;;0.00;;
30729;SDS011;17476;48.458;7.928;2023-06-10T10:58:33;0.00;;;0.00;;
30729;SDS011;17476;48.458;7.928;2023-06-10T11:00:59;0.00;;;0.00;;
30729;SDS011;17476;48.458;7.928;2023-06-10T11:03:28;0.00;;;0.00;;
30729;SDS011;17476;48.458;7.928;2023-06-10T11:05:57;0.00;;;0.00;;
30729;SDS011;17476;48.458;7.928;2023-06-10T11:10:58;0.00;;;0.00;;
30729;SDS011;17476;48.458;7.928;2023-06-10T11:13:25;0.00;;;0.00;;
30729;SDS011;17476;48.458;7.928;2023-06-10T11:15:53;0.00;;;0.00;;
30729;SDS011;17476;48.458;7.928;2023-06-10T11:18:23;0.00;;;0.00;;
30729;SDS011;17476;48.458;7.928;2023-06-10T11:21:03;0.00;;;0.00;;
30729;SDS011;17476;48.458;7.928;2023-06-10T11:31:29;0.00;;;0.00;;
30729;SDS011;17476;48.458;7.928;2023-06-10T11:34:10;0.00;;;0.00;;
30729;SDS011;17476;48.458;7.928;2023-06-10T11:36:38;0.00;;;0.00;;
30729;SDS011;17476;48.458;7.928;2023-06-10T11:39:07;0.00;;;0.00;;
30729;SDS011;17476;48.458;7.928;2023-06-10T11:41:35;0.00;;;0.00;;
30729;SDS011;17476;48.458;7.928;2023-06-10T11:44:12;0.00;;;0.00;;
30729;SDS011;17476;48.458;7.928;2023-06-10T11:46:39;0.00;;;0.00;;
30729;SDS011;17476;48.458;7.928;2023-06-10T11:49:07;0.00;;;0.00;;
30729;SDS011;17476;48.458;7.928;2023-06-10T11:51:34;0.00;;;0.00;;
30729;SDS011;17476;48.458;7.928;2023-06-10T11:54:03;0.00;;;0.00;;
30729;SDS011;17476;48.458;7.928;2023-06-10T11:56:29;0.00;;;0.00;;
30729;SDS011;17476;48.458;7.928;2023-06-10T11:58:57;0.00;;;0.00;;
30729;SDS011;17476;48.458;7.928;2023-06-10T12:01:29;0.00;;;0.00;;
30729;SDS011;17476;48.458;7.928;2023-06-10T12:04:03;0.00;;;0.00;;
30729;SDS011;17476;48.458;7.928;2023-06-10T12:06:41;0.00;;;0.00;;
30729;SDS011;17476;48.458;7.928;2023-06-10T12:11:58;0.00;;;0.00;;
30729;SDS011;17476;48.458;7.928;2023-06-10T12:17:23;0.00;;;0.00;;
30729;SDS011;17476;48.458;7.928;2023-06-10T12:19:56;0.00;;;0.00;;
30729;SDS011;17476;48.458;7.928;2023-06-10T12:22:22;0.00;;;0.00;;
30729;SDS011;17476;48.458;7.928;2023-06-10T12:24:59;0.00;;;0.00;;
30729;SDS011;17476;48.458;7.928;2023-06-10T12:27:28;0.00;;;0.00;;
30729;SDS011;17476;48.458;7.928;2023-06-10T12:29:56;0.00;;;0.00;;
30729;SDS011;17476;48.458;7.928;2023-06-10T12:32:36;0.00;;;0.00;;
30729;SDS011;17476;48.458;7.928;2023-06-10T12:35:06;0.00;;;0.00;;
30729;SDS011;17476;48.458;7.928;2023-06-10T12:37:33;0.00;;;0.00;;
30729;SDS011;17476;48.458;7.928;2023-06-10T12:40:00;0.00;;;0.00;;
30729;SDS011;17476;48.458;7.928;2023-06-10T12:42:35;0.00;;;0.00;;
30729;SDS011;17476;48.458;7.928;2023-06-10T12:45:02;0.00;;;0.00;;
30729;SDS011;17476;48.458;7.928;2023-06-10T12:47:32;0.00;;;0.00;;
30729;SDS011;17476;48.458;7.928;2023-06-10T12:50:06;0.00;;;0.00;;
30729;SDS011;17476;48.458;7.928;2023-06-10T12:52:33;0.00;;;0.00;;
30729;SDS011;17476;48.458;7.928;2023-06-10T12:54:59;0.00;;;0.00;;
30729;SDS011;17476;48.458;7.928;2023-06-10T12:57:25;0.00;;;0.00;;
30729;SDS011;17476;48.458;7.928;2023-06-10T12:59:51;0.00;;;0.00;;
30729;SDS011;17476;48.458;7.928;2023-06-10T13:02:20;0.00;;;0.00;;
30729;SDS011;17476;48.458;7.928;2023-06-10T13:04:49;0.00;;;0.00;;
30729;SDS011;17476;48.458;7.928;2023-06-10T13:07:16;0.00;;;0.00;;
30729;SDS011;17476;48.458;7.928;2023-06-10T13:09:42;0.00;;;0.00;;
30729;SDS011;17476;48.458;7.928;2023-06-10T13:12:09;0.00;;;0.00;;
30729;SDS011;17476;48.458;7.928;2023-06-10T13:14:36;0.00;;;0.00;;
30729;SDS011;17476;48.458;7.928;2023-06-10T13:17:03;0.00;;;0.00;;
30729;SDS011;17476;48.458;7.928;2023-06-10T13:19:33;0.00;;;0.00;;
30729;SDS011;17476;48.458;7.928;2023-06-10T13:21:59;0.00;;;0.00;;
30729;SDS011;17476;48.458;7.928;2023-06-10T13:24:24;0.00;;;0.00;;
30729;SDS011;17476;48.458;7.928;2023-06-10T13:26:51;0.00;;;0.00;;
30729;SDS011;17476;48.458;7.928;2023-06-10T13:29:17;0.00;;;0.00;;
30729;SDS011;17476;48.458;7.928;2023-06-10T13:31:42;0.00;;;0.00;;
30729;SDS011;17476;48.458;7.928;2023-06-10T13:34:08;0.00;;;0.00;;
30729;SDS011;17476;48.458;7.928;2023-06-10T13:36:34;0.00;;;0.00;;
30729;SDS011;17476;48.458;7.928;2023-06-10T13:39:00;0.00;;;0.00;;
30729;SDS011;17476;48.458;7.928;2023-06-10T13:41:26;0.00;;;0.00;;
30729;SDS011;17476;48.458;7.928;2023-06-10T13:43:54;0.00;;;0.00;;
30729;SDS011;17476;48.458;7.928;2023-06-10T13:46:20;0.00;;;0.00;;
30729;SDS011;17476;48.458;7.928;2023-06-10T13:48:47;0.00;;;0.00;;
30729;SDS011;17476;48.458;7.928;2023-06-10T13:51:13;0.00;;;0.00;;
30729;SDS011;17476;48.458;7.928;2023-06-10T13:53:39;0.00;;;0.00;;
30729;SDS011;17476;48.458;7.928;2023-06-10T13:56:05;0.00;;;0.00;;
30729;SDS011;17476;48.458;7.928;2023-06-10T13:58:31;0.00;;;0.00;;
30729;SDS011;17476;48.458;7.928;2023-06-10T14:00:56;0.00;;;0.00;;
30729;SDS011;17476;48.458;7.928;2023-06-10T14:03:23;0.00;;;0.00;;
30729;SDS011;17476;48.458;7.928;2023-06-10T14:05:49;0.00;;;0.00;;
30729;SDS011;17476;48.458;7.928;2023-06-10T14:08:15;0.00;;;0.00;;
30729;SDS011;17476;48.458;7.928;2023-06-10T14:10:42;0.00;;;0.00;;
30729;SDS011;17476;48.458;7.928;2023-06-10T14:13:08;0.00;;;0.00;;
30729;SDS011;17476;48.458;7.928;2023-06-10T14:15:34;0.00;;;0.00;;
30729;SDS011;17476;48.458;7.928;2023-06-10T14:18:00;0.00;;;0.00;;
30729;SDS011;17476;48.458;7.928;2023-06-10T14:20:26;0.00;;;0.00;;
30729;SDS011;17476;48.458;7.928;2023-06-10T14:22:56;0.00;;;0.00;;
30729;SDS011;17476;48.458;7.928;2023-06-10T14:25:23;0.00;;;0.00;;
30729;SDS011;17476;48.458;7.928;2023-06-10T14:27:49;0.00;;;0.00;;
30729;SDS011;17476;48.458;7.928;2023-06-10T14:30:15;0.00;;;0.00;;
30729;SDS011;17476;48.458;7.928;2023-06-10T14:32:41;0.00;;;0.00;;
30729;SDS011;17476;48.458;7.928;2023-06-10T14:35:08;0.00;;;0.00;;
30729;SDS011;17476;48.458;7.928;2023-06-10T14:37:34;0.00;;;0.00;;
30729;SDS011;17476;48.458;7.928;2023-06-10T14:40:01;0.00;;;0.00;;
30729;SDS011;17476;48.458;7.928;2023-06-10T14:42:27;0.00;;;0.00;;
30729;SDS011;17476;48.458;7.928;2023-06-10T14:44:53;0.00;;;0.00;;
30729;SDS011;17476;48.458;7.928;2023-06-10T14:47:18;0.00;;;0.00;;
30729;SDS011;17476;48.458;7.928;2023-06-10T14:49:44;0.00;;;0.00;;
30729;SDS011;17476;48.458;7.928;2023-06-10T14:52:10;0.00;;;0.00;;
30729;SDS011;17476;48.458;7.928;2023-06-10T14:54:36;0.00;;;0.00;;
30729;SDS011;17476;48.458;7.928;2023-06-10T14:57:02;0.00;;;0.00;;
30729;SDS011;17476;48.458;7.928;2023-06-10T14:59:28;0.00;;;0.00;;
30729;SDS011;17476;48.458;7.928;2023-06-10T15:01:54;0.00;;;0.00;;
30729;SDS011;17476;48.458;7.928;2023-06-10T15:04:19;0.00;;;0.00;;
30729;SDS011;17476;48.458;7.928;2023-06-10T15:06:45;0.00;;;0.00;;
30729;SDS011;17476;48.458;7.928;2023-06-10T15:09:13;0.00;;;0.00;;
30729;SDS011;17476;48.458;7.928;2023-06-10T15:11:39;0.00;;;0.00;;
30729;SDS011;17476;48.458;7.928;2023-06-10T15:14:05;0.00;;;0.00;;
30729;SDS011;17476;48.458;7.928;2023-06-10T15:16:31;0.00;;;0.00;;
30729;SDS011;17476;48.458;7.928;2023-06-10T15:18:57;0.00;;;0.00;;